Time;durP1;ratioP1;P1;durP2;ratioP2;P2;SDS_P1;SDS_P2;PMS_P1;PMS_P2;Temp;Humidity;BMP_temperature;BMP_pressure;BME280_temperature;BME280_humidity;BME280_pressure;Samples;Min_cycle;Max_cycle;Signal;HPM_P1;HPM_P2
2022/12/09 00:00:14;;;;;;;;;;;24.60;74.20;;;;;;5087176;28;19924;-72
2022/12/09 00:02:40;;;;;;;;;;;24.40;75.20;;;;;;5080584;28;19977;-72
2022/12/09 00:05:07;;;;;;;;;;;24.60;75.70;;;;;;5077188;28;20256;-70
2022/12/09 00:07:37;;;;;;;;;;;24.90;75.80;;;;;;5078236;28;20417;-70
2022/12/09 00:10:04;;;;;;;;;;;24.90;74.10;;;;;;5085518;28;19926;-72
2022/12/09 00:12:31;;;;;;;;;;;24.30;75.00;;;;;;5082667;28;20345;-71
2022/12/09 00:14:57;;;;;;;;;;;24.00;76.10;;;;;;5079312;28;19920;-71
2022/12/09 00:17:24;;;;;;;;;;;23.70;76.60;;;;;;5085215;28;19951;-72
2022/12/09 00:19:51;;;;;;;;;;;23.30;77.70;;;;;;5080393;28;19920;-71
2022/12/09 00:22:17;;;;;;;;;;;23.10;77.40;;;;;;5080551;28;19971;-72
2022/12/09 00:24:44;;;;;;;;;;;22.80;77.90;;;;;;5086120;28;20298;-73
2022/12/09 00:27:11;;;;;;;;;;;22.70;79.10;;;;;;5077903;28;19920;-71
2022/12/09 00:29:37;;;;;;;;;;;22.90;78.70;;;;;;5085246;28;19920;-70
2022/12/09 00:32:04;;;;;;;;;;;23.30;78.20;;;;;;5081191;28;19927;-74
2022/12/09 00:34:31;;;;;;;;;;;24.10;77.70;;;;;;5089781;28;20002;-72
2022/12/09 00:36:57;;;;;;;;;;;24.60;75.70;;;;;;5085367;28;19923;-73
2022/12/09 00:39:24;;;;;;;;;;;25.10;74.90;;;;;;5077330;28;20591;-71
2022/12/09 00:41:51;;;;;;;;;;;25.30;73.60;;;;;;5088977;28;19924;-73
2022/12/09 00:44:18;;;;;;;;;;;25.40;73.90;;;;;;5091787;28;20374;-71
2022/12/09 00:46:45;;;;;;;;;;;25.90;75.40;;;;;;5091806;28;19916;-74
2022/12/09 00:49:12;;;;;;;;;;;26.40;75.20;;;;;;5089440;28;19916;-75
2022/12/09 00:51:38;;;;;;;;;;;26.90;74.20;;;;;;5088273;28;19912;-72
2022/12/09 00:54:05;;;;;;;;;;;27.00;72.70;;;;;;5087943;28;19927;-71
2022/12/09 00:56:32;;;;;;;;;;;27.20;72.70;;;;;;5090612;28;19912;-71
2022/12/09 00:58:58;;;;;;;;;;;27.50;73.60;;;;;;5092013;28;19912;-73
2022/12/09 01:01:26;;;;;;;;;;;27.80;73.30;;;;;;5083793;28;20341;-73
2022/12/09 01:03:52;;;;;;;;;;;28.10;73.90;;;;;;5081791;28;19966;-75
2022/12/09 01:06:21;;;;;;;;;;;28.30;71.90;;;;;;5085279;28;20012;-73
2022/12/09 01:08:48;;;;;;;;;;;28.50;70.40;;;;;;5086169;28;19979;-72
2022/12/09 01:11:18;;;;;;;;;;;27.90;70.10;;;;;;5081749;28;19999;-72
2022/12/09 01:13:45;;;;;;;;;;;27.50;71.60;;;;;;5074048;28;20436;-74
2022/12/09 01:16:16;;;;;;;;;;;27.00;70.30;;;;;;5090335;28;20282;-73
2022/12/09 01:18:43;;;;;;;;;;;26.30;71.70;;;;;;5091303;28;19961;-76
2022/12/09 01:21:09;;;;;;;;;;;26.30;73.10;;;;;;5080858;28;19920;-75
2022/12/09 01:23:36;;;;;;;;;;;26.80;72.00;;;;;;5085827;28;20321;-75
2022/12/09 01:26:04;;;;;;;;;;;26.90;70.30;;;;;;5081862;28;19916;-72
2022/12/09 01:28:31;;;;;;;;;;;26.50;69.70;;;;;;5082162;28;19973;-74
2022/12/09 01:31:03;;;;;;;;;;;26.50;69.90;;;;;;5084585;28;19959;-72
2022/12/09 01:33:30;;;;;;;;;;;26.70;69.60;;;;;;5088992;28;19912;-71
2022/12/09 01:35:57;;;;;;;;;;;27.00;71.10;;;;;;5088706;28;19927;-73
2022/12/09 01:38:24;;;;;;;;;;;27.50;71.00;;;;;;5093288;28;19978;-72
2022/12/09 01:40:50;;;;;;;;;;;27.60;69.70;;;;;;5087505;28;20290;-73
2022/12/09 01:43:18;;;;;;;;;;;27.00;70.60;;;;;;5093271;28;19919;-69
2022/12/09 01:45:45;;;;;;;;;;;26.60;71.90;;;;;;5088456;28;19918;-71
2022/12/09 01:48:13;;;;;;;;;;;26.20;72.30;;;;;;5092965;28;19916;-71
2022/12/09 01:50:45;;;;;;;;;;;25.90;73.30;;;;;;5084713;28;20358;-72
2022/12/09 01:53:14;;;;;;;;;;;25.80;73.10;;;;;;5090448;28;19912;-72
2022/12/09 01:55:41;;;;;;;;;;;25.30;73.20;;;;;;5088564;28;19916;-73
2022/12/09 01:58:08;;;;;;;;;;;25.20;73.20;;;;;;5079069;28;20374;-72
2022/12/09 02:00:35;;;;;;;;;;;25.00;72.40;;;;;;5082404;28;19964;-69
2022/12/09 02:03:02;;;;;;;;;;;24.60;73.60;;;;;;5092985;28;19913;-71
2022/12/09 02:05:29;;;;;;;;;;;24.40;74.10;;;;;;5083793;28;19912;-71
2022/12/09 02:07:56;;;;;;;;;;;24.70;74.00;;;;;;5090386;28;19912;-73
2022/12/09 02:10:23;;;;;;;;;;;25.30;74.10;;;;;;5086384;28;19912;-72
2022/12/09 02:12:50;;;;;;;;;;;25.60;73.00;;;;;;5074188;28;20389;-71
2022/12/09 02:15:36;;;;;;;;;;;26.00;72.10;;;;;;5078316;28;20391;-71
2022/12/09 02:18:10;;;;;;;;;;;26.30;71.60;;;;;;5090020;28;20342;-70
2022/12/09 02:20:52;;;;;;;;;;;26.90;71.60;;;;;;5082960;28;19927;-71
2022/12/09 02:23:30;;;;;;;;;;;27.20;69.20;;;;;;5087799;28;20018;-71
2022/12/09 02:26:02;;;;;;;;;;;27.50;68.90;;;;;;5084394;28;19912;-69
2022/12/09 02:28:40;;;;;;;;;;;27.30;68.80;;;;;;5088475;28;19916;-73
2022/12/09 02:31:19;;;;;;;;;;;27.00;69.90;;;;;;5083299;28;19936;-73
2022/12/09 02:34:04;;;;;;;;;;;26.10;70.40;;;;;;5074799;28;19916;-71
2022/12/09 02:36:34;;;;;;;;;;;25.30;71.10;;;;;;5087755;28;20491;-72
2022/12/09 02:39:02;;;;;;;;;;;25.10;71.70;;;;;;5078349;28;19916;-72
2022/12/09 02:41:29;;;;;;;;;;;25.10;71.60;;;;;;5087702;28;19935;-71
2022/12/09 02:44:00;;;;;;;;;;;25.30;71.50;;;;;;5079948;28;20037;-71
2022/12/09 02:46:27;;;;;;;;;;;26.10;72.30;;;;;;5087813;28;19916;-72
2022/12/09 02:48:55;;;;;;;;;;;26.90;70.50;;;;;;5083394;28;19930;-73
2022/12/09 02:51:23;;;;;;;;;;;27.60;69.80;;;;;;5085515;28;20007;-70
2022/12/09 02:53:54;;;;;;;;;;;27.70;68.80;;;;;;5084635;28;19992;-71
2022/12/09 02:56:22;;;;;;;;;;;28.00;68.20;;;;;;5089435;28;19966;-73
2022/12/09 02:58:48;;;;;;;;;;;27.70;67.70;;;;;;5081611;28;19943;-72
2022/12/09 03:01:22;;;;;;;;;;;26.90;68.80;;;;;;5080149;28;19931;-71
2022/12/09 03:03:49;;;;;;;;;;;26.40;69.70;;;;;;5074327;28;19920;-72
2022/12/09 03:06:19;;;;;;;;;;;25.90;69.70;;;;;;5087552;28;19920;-72
2022/12/09 03:09:05;;;;;;;;;;;25.30;70.90;;;;;;5089132;28;20278;-72
2022/12/09 03:11:33;;;;;;;;;;;24.70;71.30;;;;;;5076218;28;20432;-74
2022/12/09 03:14:18;;;;;;;;;;;24.60;72.20;;;;;;5087562;28;19958;-72
2022/12/09 03:16:59;;;;;;;;;;;24.50;72.20;;;;;;5083553;28;19935;-70
2022/12/09 03:19:25;;;;;;;;;;;24.70;72.30;;;;;;5084798;28;19923;-71
2022/12/09 03:21:53;;;;;;;;;;;24.90;71.80;;;;;;5084805;28;19923;-72
2022/12/09 03:24:23;;;;;;;;;;;25.10;71.40;;;;;;5072347;28;19924;-70
2022/12/09 03:26:50;;;;;;;;;;;25.40;71.30;;;;;;5086601;28;19927;-71
2022/12/09 03:29:19;;;;;;;;;;;25.90;72.70;;;;;;5072193;28;19916;-71
2022/12/09 03:31:46;;;;;;;;;;;26.30;70.80;;;;;;5071644;28;20099;-70
2022/12/09 03:34:15;;;;;;;;;;;26.40;70.80;;;;;;5089391;28;19960;-70
2022/12/09 03:36:43;;;;;;;;;;;26.20;70.90;;;;;;5071803;28;19928;-68
2022/12/09 03:39:12;;;;;;;;;;;25.90;71.10;;;;;;5078864;28;19963;-68
2022/12/09 03:41:41;;;;;;;;;;;25.60;71.00;;;;;;5088464;28;20016;-69
2022/12/09 03:44:10;;;;;;;;;;;25.20;71.60;;;;;;5088602;28;19919;-71
2022/12/09 03:46:37;;;;;;;;;;;24.90;71.90;;;;;;5086489;28;20377;-73
2022/12/09 03:49:05;;;;;;;;;;;24.80;72.10;;;;;;5077825;28;19916;-69
2022/12/09 03:51:36;;;;;;;;;;;24.60;72.30;;;;;;5083770;28;19958;-69
2022/12/09 03:54:13;;;;;;;;;;;24.50;72.70;;;;;;5092613;28;19912;-70
2022/12/09 03:56:41;;;;;;;;;;;24.50;72.50;;;;;;5085302;28;19912;-68
2022/12/09 03:59:11;;;;;;;;;;;24.30;72.60;;;;;;5084572;28;19946;-69
2022/12/09 04:01:39;;;;;;;;;;;24.10;72.80;;;;;;5078720;28;20006;-71
2022/12/09 04:04:07;;;;;;;;;;;24.00;73.10;;;;;;5089913;28;20006;-69
2022/12/09 04:06:34;;;;;;;;;;;24.00;73.00;;;;;;5088645;28;19985;-72
2022/12/09 04:09:01;;;;;;;;;;;24.10;73.10;;;;;;5082308;28;19925;-69
2022/12/09 04:11:28;;;;;;;;;;;24.10;73.00;;;;;;5078297;28;19911;-69
2022/12/09 04:13:55;;;;;;;;;;;24.20;72.60;;;;;;5091222;28;20001;-69
2022/12/09 04:16:21;;;;;;;;;;;24.20;73.00;;;;;;5094420;28;19920;-68
2022/12/09 04:18:48;;;;;;;;;;;24.30;73.70;;;;;;5078447;28;19958;-70
2022/12/09 04:21:15;;;;;;;;;;;24.30;73.60;;;;;;5083643;28;19931;-69
2022/12/09 04:23:41;;;;;;;;;;;24.30;73.10;;;;;;5089337;28;20693;-69
2022/12/09 04:26:11;;;;;;;;;;;24.10;73.20;;;;;;5088876;28;19912;-70
2022/12/09 04:28:38;;;;;;;;;;;24.30;73.50;;;;;;5091470;28;19908;-70
2022/12/09 04:31:05;;;;;;;;;;;24.70;73.70;;;;;;5076270;28;19919;-68
2022/12/09 04:33:32;;;;;;;;;;;25.10;71.70;;;;;;5073909;28;19912;-68
2022/12/09 04:36:03;;;;;;;;;;;25.10;71.90;;;;;;5073680;28;20043;-69
2022/12/09 04:38:30;;;;;;;;;;;25.00;72.20;;;;;;5089837;28;19958;-69
2022/12/09 04:40:58;;;;;;;;;;;25.00;72.20;;;;;;5087161;28;20037;-69
2022/12/09 04:43:25;;;;;;;;;;;25.20;72.50;;;;;;5081264;28;19950;-68
2022/12/09 04:45:52;;;;;;;;;;;25.20;71.70;;;;;;5080823;28;19923;-72
2022/12/09 04:48:18;;;;;;;;;;;24.90;72.00;;;;;;5082555;28;20030;-69
2022/12/09 04:50:45;;;;;;;;;;;24.70;72.60;;;;;;5089568;28;19921;-69
2022/12/09 04:53:12;;;;;;;;;;;24.70;72.30;;;;;;5085120;28;19970;-69
2022/12/09 04:55:38;;;;;;;;;;;24.60;72.50;;;;;;5075243;28;19912;-71
2022/12/09 04:58:05;;;;;;;;;;;24.70;73.80;;;;;;5076018;28;19917;-70
2022/12/09 05:00:32;;;;;;;;;;;24.90;73.30;;;;;;5088683;28;19924;-71
2022/12/09 05:02:58;;;;;;;;;;;25.10;72.70;;;;;;5084358;28;20020;-73
2022/12/09 05:05:25;;;;;;;;;;;25.10;72.00;;;;;;5082413;28;19912;-72
2022/12/09 05:07:52;;;;;;;;;;;25.20;73.50;;;;;;5085689;28;19912;-72
2022/12/09 05:10:19;;;;;;;;;;;25.30;73.10;;;;;;5077322;28;20315;-75
2022/12/09 05:12:45;;;;;;;;;;;25.40;72.70;;;;;;5086327;28;19923;-72
2022/12/09 05:15:12;;;;;;;;;;;25.10;72.30;;;;;;5090450;28;19912;-72
2022/12/09 05:17:39;;;;;;;;;;;25.00;72.30;;;;;;5075853;28;20337;-73
2022/12/09 05:20:06;;;;;;;;;;;24.90;72.70;;;;;;5082117;28;20382;-72
2022/12/09 05:22:33;;;;;;;;;;;25.00;72.30;;;;;;5077492;28;19932;-72
2022/12/09 05:24:59;;;;;;;;;;;25.10;72.90;;;;;;5083104;28;20359;-71
2022/12/09 05:27:26;;;;;;;;;;;25.20;71.90;;;;;;5087176;28;19999;-73
2022/12/09 05:29:53;;;;;;;;;;;25.20;72.00;;;;;;5089887;28;19920;-73
2022/12/09 05:32:20;;;;;;;;;;;24.80;71.80;;;;;;5074389;28;19923;-69
2022/12/09 05:34:46;;;;;;;;;;;24.50;72.60;;;;;;5082161;28;19923;-73
2022/12/09 05:37:14;;;;;;;;;;;24.10;72.50;;;;;;5093652;28;20298;-73
2022/12/09 05:39:41;;;;;;;;;;;23.90;73.30;;;;;;5081502;28;19916;-73
2022/12/09 05:42:08;;;;;;;;;;;24.00;73.30;;;;;;5076404;28;20007;-74
2022/12/09 05:44:34;;;;;;;;;;;24.10;73.30;;;;;;5086815;28;20549;-71
2022/12/09 05:47:01;;;;;;;;;;;24.20;73.10;;;;;;5093352;28;19912;-72
2022/12/09 05:49:28;;;;;;;;;;;24.30;72.60;;;;;;5083543;28;19909;-74
2022/12/09 05:51:54;;;;;;;;;;;24.30;73.30;;;;;;5081731;28;19912;-71
2022/12/09 05:54:21;;;;;;;;;;;24.30;72.70;;;;;;5084637;28;19912;-74
2022/12/09 05:56:48;;;;;;;;;;;24.00;72.70;;;;;;5085630;28;19916;-74
2022/12/09 05:59:15;;;;;;;;;;;23.70;73.40;;;;;;5089734;28;19961;-72
2022/12/09 06:01:41;;;;;;;;;;;23.40;73.70;;;;;;5091528;28;20431;-75
2022/12/09 06:04:08;;;;;;;;;;;23.30;74.70;;;;;;5086869;28;19975;-73
2022/12/09 06:06:35;;;;;;;;;;;23.50;74.80;;;;;;5083635;28;19920;-75
2022/12/09 06:09:02;;;;;;;;;;;23.60;74.10;;;;;;5091690;28;19912;-72
2022/12/09 06:11:28;;;;;;;;;;;23.70;73.50;;;;;;5087243;28;19931;-72
2022/12/09 06:13:55;;;;;;;;;;;23.80;74.10;;;;;;5076330;28;19959;-73
2022/12/09 06:16:22;;;;;;;;;;;23.70;73.20;;;;;;5075191;28;19916;-75
2022/12/09 06:18:49;;;;;;;;;;;23.60;73.50;;;;;;5087437;28;19916;-76
2022/12/09 06:21:17;;;;;;;;;;;23.50;74.50;;;;;;5086270;28;19969;-77
2022/12/09 06:23:44;;;;;;;;;;;23.40;74.00;;;;;;5083805;28;20382;-76
2022/12/09 06:26:18;;;;;;;;;;;23.20;74.00;;;;;;5088449;28;20293;-77
2022/12/09 06:28:45;;;;;;;;;;;23.00;74.50;;;;;;5073377;28;20007;-76
2022/12/09 06:31:12;;;;;;;;;;;22.90;75.00;;;;;;5074653;28;19909;-76
2022/12/09 06:33:39;;;;;;;;;;;22.80;75.10;;;;;;5086200;28;20117;-76
2022/12/09 06:36:06;;;;;;;;;;;22.70;75.50;;;;;;5085688;28;19971;-75
2022/12/09 06:38:33;;;;;;;;;;;22.60;75.60;;;;;;5089364;28;19912;-75
2022/12/09 06:40:59;;;;;;;;;;;22.60;75.60;;;;;;5089518;28;19946;-76
2022/12/09 06:43:26;;;;;;;;;;;22.50;76.60;;;;;;5090878;28;19915;-76
2022/12/09 06:45:53;;;;;;;;;;;22.60;76.40;;;;;;5082742;28;19991;-76
2022/12/09 06:48:19;;;;;;;;;;;22.40;76.80;;;;;;5091486;28;19990;-77
2022/12/09 06:50:46;;;;;;;;;;;22.30;76.90;;;;;;5077831;28;19935;-74
2022/12/09 06:53:13;;;;;;;;;;;22.20;76.50;;;;;;5076523;28;19912;-78
2022/12/09 06:55:39;;;;;;;;;;;21.90;76.80;;;;;;5081452;28;19916;-75
2022/12/09 06:58:06;;;;;;;;;;;21.70;77.70;;;;;;5090648;28;20441;-76
2022/12/09 07:00:33;;;;;;;;;;;21.60;77.90;;;;;;5085932;28;20388;-76
2022/12/09 07:03:00;;;;;;;;;;;21.70;78.50;;;;;;5090984;28;19976;-77
2022/12/09 07:05:26;;;;;;;;;;;21.60;78.60;;;;;;5075585;28;19923;-77
2022/12/09 07:07:53;;;;;;;;;;;21.60;78.80;;;;;;5090631;28;19919;-77
2022/12/09 07:10:20;;;;;;;;;;;21.50;79.00;;;;;;5081482;28;19913;-75
2022/12/09 07:12:47;;;;;;;;;;;21.20;79.00;;;;;;5088731;28;19924;-76
2022/12/09 07:15:13;;;;;;;;;;;21.10;79.50;;;;;;5089341;28;20006;-73
2022/12/09 07:17:40;;;;;;;;;;;21.00;80.00;;;;;;5082647;28;20394;-75
2022/12/09 07:20:11;;;;;;;;;;;21.00;80.20;;;;;;5082809;28;19924;-75
2022/12/09 07:22:38;;;;;;;;;;;21.00;80.10;;;;;;5089824;28;20004;-76
2022/12/09 07:25:04;;;;;;;;;;;20.90;80.30;;;;;;5081440;28;19924;-76
2022/12/09 07:27:31;;;;;;;;;;;20.80;80.40;;;;;;5085007;28;19922;-78
2022/12/09 07:29:58;;;;;;;;;;;20.80;80.70;;;;;;5082680;28;19918;-77
2022/12/09 07:32:25;;;;;;;;;;;20.80;80.70;;;;;;5085874;28;19961;-75
2022/12/09 07:34:51;;;;;;;;;;;20.70;81.00;;;;;;5081649;28;19920;-78
2022/12/09 07:37:18;;;;;;;;;;;20.60;81.20;;;;;;5078650;28;20015;-76
2022/12/09 07:39:45;;;;;;;;;;;20.40;81.60;;;;;;5083694;28;20269;-75
2022/12/09 07:42:11;;;;;;;;;;;20.30;82.20;;;;;;5086539;28;19912;-76
2022/12/09 07:44:38;;;;;;;;;;;20.30;82.50;;;;;;5084195;28;19986;-73
2022/12/09 07:47:05;;;;;;;;;;;20.20;82.60;;;;;;5071058;28;19942;-75
2022/12/09 07:49:31;;;;;;;;;;;20.10;82.90;;;;;;5071980;28;20370;-74
2022/12/09 07:51:58;;;;;;;;;;;20.00;83.00;;;;;;5085092;28;19916;-76
2022/12/09 07:54:25;;;;;;;;;;;19.90;83.00;;;;;;5071215;28;19912;-75
2022/12/09 07:56:51;;;;;;;;;;;19.80;83.60;;;;;;5076721;28;19959;-77
2022/12/09 07:59:18;;;;;;;;;;;19.80;84.10;;;;;;5083388;28;19923;-76
2022/12/09 08:01:45;;;;;;;;;;;19.70;84.20;;;;;;5091077;28;19973;-75
2022/12/09 08:04:12;;;;;;;;;;;19.60;84.80;;;;;;5083081;28;19958;-76
2022/12/09 08:06:38;;;;;;;;;;;19.60;85.10;;;;;;5071138;28;19947;-76
2022/12/09 08:09:07;;;;;;;;;;;19.50;85.40;;;;;;5078339;28;20338;-75
2022/12/09 08:11:34;;;;;;;;;;;19.40;85.50;;;;;;5071606;28;20007;-75
2022/12/09 08:14:02;;;;;;;;;;;19.40;85.60;;;;;;5075668;28;20007;-77
2022/12/09 08:16:29;;;;;;;;;;;19.40;86.20;;;;;;5089481;28;19912;-74
2022/12/09 08:18:55;;;;;;;;;;;19.30;86.80;;;;;;5087754;28;19930;-75
2022/12/09 08:21:24;;;;;;;;;;;19.10;87.20;;;;;;5072967;28;19920;-71
2022/12/09 08:23:51;;;;;;;;;;;19.10;87.20;;;;;;5071058;28;20006;-76
2022/12/09 08:26:20;;;;;;;;;;;19.00;87.80;;;;;;5086066;28;20343;-74
2022/12/09 08:28:46;;;;;;;;;;;18.90;88.30;;;;;;5088493;28;19923;-76
2022/12/09 08:31:15;;;;;;;;;;;18.80;88.50;;;;;;5089523;28;19958;-75
2022/12/09 08:33:42;;;;;;;;;;;18.80;88.80;;;;;;5086392;28;19912;-76
2022/12/09 08:36:11;;;;;;;;;;;18.80;88.40;;;;;;5070414;28;19920;-77
2022/12/09 08:38:38;;;;;;;;;;;18.70;88.40;;;;;;5072575;28;20011;-76
2022/12/09 08:41:15;;;;;;;;;;;18.60;88.30;;;;;;5088832;28;20040;-76
2022/12/09 08:43:42;;;;;;;;;;;18.50;88.50;;;;;;5093766;28;19923;-77
2022/12/09 08:46:09;;;;;;;;;;;18.40;89.00;;;;;;5079348;28;19994;-76
2022/12/09 08:48:36;;;;;;;;;;;18.40;89.20;;;;;;5077786;28;20055;-74
2022/12/09 08:51:03;;;;;;;;;;;18.30;89.30;;;;;;5084523;28;19920;-75
2022/12/09 08:53:31;;;;;;;;;;;18.20;89.70;;;;;;5082095;28;19920;-76
2022/12/09 08:55:57;;;;;;;;;;;18.20;90.00;;;;;;5090679;28;19941;-76
2022/12/09 08:58:24;;;;;;;;;;;18.10;90.10;;;;;;5091877;28;19912;-76
2022/12/09 09:00:51;;;;;;;;;;;18.00;90.30;;;;;;5089221;28;19956;-76
2022/12/09 09:03:21;;;;;;;;;;;18.00;90.30;;;;;;5080778;28;20485;-76
2022/12/09 09:05:48;;;;;;;;;;;18.10;90.50;;;;;;5089556;28;20034;-76
2022/12/09 09:08:14;;;;;;;;;;;18.10;90.80;;;;;;5091632;28;20382;-76
2022/12/09 09:10:41;;;;;;;;;;;18.10;90.90;;;;;;5077714;28;19912;-75
2022/12/09 09:13:08;;;;;;;;;;;18.10;91.00;;;;;;5073813;28;20006;-75
2022/12/09 09:15:34;;;;;;;;;;;18.10;91.20;;;;;;5078578;28;19916;-76
2022/12/09 09:18:01;;;;;;;;;;;18.00;91.30;;;;;;5092043;28;20279;-74
2022/12/09 09:20:27;;;;;;;;;;;18.10;91.40;;;;;;5081942;28;19920;-74
2022/12/09 09:22:54;;;;;;;;;;;18.00;91.50;;;;;;5080122;28;19928;-76
2022/12/09 09:25:21;;;;;;;;;;;18.10;91.50;;;;;;5078700;28;20062;-74
2022/12/09 09:27:47;;;;;;;;;;;18.10;91.50;;;;;;5092374;28;19913;-74
2022/12/09 09:30:14;;;;;;;;;;;18.10;91.60;;;;;;5083909;28;19921;-74
2022/12/09 09:32:41;;;;;;;;;;;18.10;91.70;;;;;;5082519;28;19931;-76
2022/12/09 09:35:08;;;;;;;;;;;18.10;91.70;;;;;;5076733;28;20340;-76
2022/12/09 09:37:35;;;;;;;;;;;18.10;91.90;;;;;;5089191;28;19922;-75
2022/12/09 09:40:01;;;;;;;;;;;18.10;91.90;;;;;;5091093;28;19916;-73
2022/12/09 09:42:32;;;;;;;;;;;18.00;91.90;;;;;;5093773;28;19918;-72
2022/12/09 09:45:00;;;;;;;;;;;18.10;92.10;;;;;;5081622;28;19908;-77
2022/12/09 09:47:53;;;;;;;;;;;18.00;92.10;;;;;;5091542;28;20266;-75
2022/12/09 09:50:20;;;;;;;;;;;18.00;92.20;;;;;;5089359;28;19912;-75
2022/12/09 09:52:47;;;;;;;;;;;18.10;92.30;;;;;;5087756;28;20270;-76
2022/12/09 09:55:14;;;;;;;;;;;18.10;92.30;;;;;;5078227;28;19938;-77
2022/12/09 09:57:44;;;;;;;;;;;18.00;92.40;;;;;;5079534;28;19916;-76
2022/12/09 10:00:20;;;;;;;;;;;18.00;92.50;;;;;;5079792;28;19927;-76
2022/12/09 10:02:48;;;;;;;;;;;18.00;92.50;;;;;;5072996;28;20073;-76
2022/12/09 10:05:20;;;;;;;;;;;18.00;92.50;;;;;;5086764;28;19973;-75
2022/12/09 10:08:03;;;;;;;;;;;18.00;92.60;;;;;;5086624;28;19990;-76
2022/12/09 10:10:49;;;;;;;;;;;18.10;92.60;;;;;;5073957;28;19962;-70
2022/12/09 10:13:38;;;;;;;;;;;18.10;92.60;;;;;;5087980;28;19935;-77
2022/12/09 10:16:13;;;;;;;;;;;18.10;92.70;;;;;;5080663;28;19916;-73
2022/12/09 10:18:55;;;;;;;;;;;18.10;92.60;;;;;;5091680;28;19912;-76
2022/12/09 10:21:22;;;;;;;;;;;18.10;92.60;;;;;;5074527;28;19970;-75
2022/12/09 10:23:49;;;;;;;;;;;18.00;92.60;;;;;;5076280;28;19959;-74
2022/12/09 10:26:23;;;;;;;;;;;18.00;92.80;;;;;;5077412;28;19912;-76
2022/12/09 10:28:53;;;;;;;;;;;18.00;92.80;;;;;;5079723;28;20314;-75
2022/12/09 10:31:20;;;;;;;;;;;18.00;92.80;;;;;;5074781;28;19923;-75
2022/12/09 10:33:48;;;;;;;;;;;18.00;92.90;;;;;;5075790;28;19965;-76
2022/12/09 10:36:25;;;;;;;;;;;18.00;92.90;;;;;;5075231;28;20341;-74
2022/12/09 10:38:51;;;;;;;;;;;18.00;93.00;;;;;;5073824;28;19916;-76
2022/12/09 10:44:24;;;;;;;;;;;18.00;93.20;;;;;;5071896;28;19920;-76
2022/12/09 10:47:02;;;;;;;;;;;18.00;93.30;;;;;;5083561;28;19935;-75
2022/12/09 10:49:30;;;;;;;;;;;18.00;93.30;;;;;;5081837;28;19917;-77
2022/12/09 10:51:57;;;;;;;;;;;18.00;93.30;;;;;;5081157;28;19920;-75
2022/12/09 10:54:32;;;;;;;;;;;18.00;93.30;;;;;;5082086;28;19916;-75
2022/12/09 10:57:01;;;;;;;;;;;17.90;93.50;;;;;;5072120;28;20248;-75
2022/12/09 10:59:29;;;;;;;;;;;17.90;93.40;;;;;;5078046;28;19956;-75
2022/12/09 11:02:00;;;;;;;;;;;17.90;93.50;;;;;;5077209;28;20274;-75
2022/12/09 11:04:31;;;;;;;;;;;17.80;93.50;;;;;;5077395;28;19919;-78
2022/12/09 11:07:01;;;;;;;;;;;17.90;93.70;;;;;;5076418;28;19913;-72
2022/12/09 11:09:29;;;;;;;;;;;17.90;93.60;;;;;;5088887;28;20367;-75
2022/12/09 11:11:56;;;;;;;;;;;17.90;93.60;;;;;;5085744;27;19962;-75
2022/12/09 11:14:26;;;;;;;;;;;17.90;93.60;;;;;;5084097;28;19912;-75
2022/12/09 11:16:54;;;;;;;;;;;17.90;93.70;;;;;;5078401;28;19912;-75
2022/12/09 11:19:32;;;;;;;;;;;17.90;93.60;;;;;;5085379;28;19912;-71
2022/12/09 11:22:16;;;;;;;;;;;17.90;93.70;;;;;;5070945;28;19916;-73
2022/12/09 11:24:43;;;;;;;;;;;17.90;93.70;;;;;;5079726;28;19916;-74
2022/12/09 11:27:39;;;;;;;;;;;17.90;93.80;;;;;;5084970;28;19912;-75
2022/12/09 11:30:05;;;;;;;;;;;17.90;93.80;;;;;;5068661;28;19913;-74
2022/12/09 11:32:34;;;;;;;;;;;17.90;93.80;;;;;;5086171;28;19912;-75
2022/12/09 11:35:01;;;;;;;;;;;17.90;93.70;;;;;;5087552;28;19931;-74
2022/12/09 11:37:28;;;;;;;;;;;17.90;93.50;;;;;;5091437;28;19908;-74
2022/12/09 11:39:54;;;;;;;;;;;17.90;93.70;;;;;;5087874;28;19924;-76
2022/12/09 11:42:22;;;;;;;;;;;17.90;93.80;;;;;;5091578;28;19908;-71
2022/12/09 11:44:55;;;;;;;;;;;17.90;93.90;;;;;;5079032;28;19912;-75
2022/12/09 11:47:34;;;;;;;;;;;17.80;93.90;;;;;;5074418;28;20342;-75
2022/12/09 11:50:16;;;;;;;;;;;17.90;93.80;;;;;;5084777;28;19912;-71
2022/12/09 11:52:43;;;;;;;;;;;17.90;93.90;;;;;;5073336;28;19920;-75
2022/12/09 11:55:12;;;;;;;;;;;17.90;93.90;;;;;;5074777;28;19922;-74
2022/12/09 11:57:39;;;;;;;;;;;17.90;93.80;;;;;;5073937;28;20003;-75
2022/12/09 12:00:15;;;;;;;;;;;17.90;93.90;;;;;;5077158;28;20519;-74
2022/12/09 12:03:08;;;;;;;;;;;17.80;93.90;;;;;;5082383;28;20283;-75
2022/12/09 12:05:34;;;;;;;;;;;17.80;93.90;;;;;;5078834;28;20049;-74
2022/12/09 12:08:19;;;;;;;;;;;17.80;93.90;;;;;;5090626;28;20260;-75
2022/12/09 12:10:52;;;;;;;;;;;17.90;94.00;;;;;;5072547;28;19955;-74
2022/12/09 12:13:18;;;;;;;;;;;17.80;93.90;;;;;;5077472;28;19920;-75
2022/12/09 12:15:51;;;;;;;;;;;17.90;93.90;;;;;;5091699;28;19920;-77
2022/12/09 12:18:19;;;;;;;;;;;17.80;93.90;;;;;;5089257;28;19916;-76
2022/12/09 12:21:01;;;;;;;;;;;17.90;93.90;;;;;;5075117;28;20416;-76
2022/12/09 12:23:28;;;;;;;;;;;17.90;94.00;;;;;;5088338;28;19919;-75
2022/12/09 12:26:03;;;;;;;;;;;17.90;94.10;;;;;;5085430;28;20025;-74
2022/12/09 12:28:46;;;;;;;;;;;18.00;94.10;;;;;;5086113;28;20358;-75
2022/12/09 12:31:42;;;;;;;;;;;17.90;93.90;;;;;;5086541;28;19919;-73
2022/12/09 12:34:15;;;;;;;;;;;18.00;93.80;;;;;;5070869;28;19931;-75
2022/12/09 12:36:48;;;;;;;;;;;17.90;93.80;;;;;;5081486;28;19920;-75
2022/12/09 12:39:25;;;;;;;;;;;17.90;93.90;;;;;;5083402;28;19938;-72
2022/12/09 12:41:52;;;;;;;;;;;17.90;93.90;;;;;;5092606;28;20367;-73
2022/12/09 12:47:16;;;;;;;;;;;17.90;94.00;;;;;;5074577;28;19974;-74
2022/12/09 12:49:46;;;;;;;;;;;18.00;94.10;;;;;;5084125;28;20583;-75
2022/12/09 12:52:32;;;;;;;;;;;17.90;94.30;;;;;;5086101;28;19951;-75
2022/12/09 12:55:21;;;;;;;;;;;17.90;94.50;;;;;;5079249;28;20370;-75
2022/12/09 12:57:54;;;;;;;;;;;17.80;94.50;;;;;;5071804;28;19922;-78
2022/12/09 13:00:22;;;;;;;;;;;17.70;94.70;;;;;;5074826;28;19920;-76
2022/12/09 13:03:07;;;;;;;;;;;17.60;95.30;;;;;;5085146;28;19920;-77
2022/12/09 13:05:36;;;;;;;;;;;17.60;95.70;;;;;;5078530;28;19921;-76
2022/12/09 13:08:02;;;;;;;;;;;17.40;96.20;;;;;;5076181;28;19931;-76
2022/12/09 13:10:40;;;;;;;;;;;17.30;96.40;;;;;;5083277;28;19998;-77
2022/12/09 13:13:29;;;;;;;;;;;17.40;96.50;;;;;;5080879;28;20042;-76
2022/12/09 13:15:58;;;;;;;;;;;17.30;96.70;;;;;;5087410;28;19912;-76
2022/12/09 13:18:29;;;;;;;;;;;17.20;96.80;;;;;;5086694;28;20367;-85
2022/12/09 13:21:00;;;;;;;;;;;17.20;97.10;;;;;;5083834;28;19973;-78
2022/12/09 13:23:32;;;;;;;;;;;17.20;97.00;;;;;;5085680;28;20038;-75
2022/12/09 13:26:17;;;;;;;;;;;17.20;96.70;;;;;;5081853;28;19955;-75
2022/12/09 13:29:02;;;;;;;;;;;17.10;96.50;;;;;;5087242;28;19915;-73
2022/12/09 13:31:30;;;;;;;;;;;17.10;96.70;;;;;;5086926;28;19912;-74
2022/12/09 13:34:07;;;;;;;;;;;17.10;96.60;;;;;;5075948;28;19927;-75
2022/12/09 13:36:34;;;;;;;;;;;17.10;96.70;;;;;;5089299;28;19929;-74
2022/12/09 13:39:01;;;;;;;;;;;17.10;96.70;;;;;;5089378;28;19912;-76
2022/12/09 13:42:51;;;;;;;;;;;17.10;96.70;;;;;;5089531;28;19931;-75
2022/12/09 13:44:17;;;;;;;;;;;17.10;96.80;;;;;;5090848;28;20006;-76
2022/12/09 13:46:45;;;;;;;;;;;17.10;97.00;;;;;;5088380;28;19920;-77
2022/12/09 13:49:22;;;;;;;;;;;17.10;96.80;;;;;;5092679;28;19920;-73
2022/12/09 13:51:51;;;;;;;;;;;17.10;97.30;;;;;;5080762;28;19985;-74
2022/12/09 13:54:25;;;;;;;;;;;17.00;97.60;;;;;;5077775;28;19937;-74
2022/12/09 13:57:10;;;;;;;;;;;17.00;97.90;;;;;;5083727;28;19959;-73
2022/12/09 13:59:42;;;;;;;;;;;17.00;98.20;;;;;;5082675;28;19977;-74
2022/12/09 14:02:32;;;;;;;;;;;17.00;98.50;;;;;;5077877;28;19965;-69
2022/12/09 14:05:04;;;;;;;;;;;16.90;98.60;;;;;;5084087;28;19913;-73
2022/12/09 14:07:48;;;;;;;;;;;16.90;98.70;;;;;;5092233;28;19919;-73
2022/12/09 14:10:33;;;;;;;;;;;16.90;98.50;;;;;;5091221;28;19917;-72
2022/12/09 14:13:02;;;;;;;;;;;16.90;98.40;;;;;;5072717;28;20740;-72
2022/12/09 14:15:29;;;;;;;;;;;16.80;98.40;;;;;;5078214;28;19916;-72
2022/12/09 14:18:00;;;;;;;;;;;16.80;98.50;;;;;;5078189;28;19917;-72
2022/12/09 14:20:29;;;;;;;;;;;16.80;98.40;;;;;;5091465;28;20603;-73
2022/12/09 14:23:11;;;;;;;;;;;16.80;98.30;;;;;;5090676;28;19916;-71
2022/12/09 14:25:37;;;;;;;;;;;16.80;98.30;;;;;;5080735;28;20282;-73
2022/12/09 14:28:10;;;;;;;;;;;16.80;98.10;;;;;;5090549;28;20374;-74
2022/12/09 14:30:51;;;;;;;;;;;16.80;98.20;;;;;;5082021;28;20362;-72
2022/12/09 14:33:29;;;;;;;;;;;16.70;98.00;;;;;;5092076;28;19909;-73
2022/12/09 14:36:15;;;;;;;;;;;16.70;98.10;;;;;;5088453;28;20910;-71